sensor_id;sensor_type;location;lat;lon;timestamp;P1;durP1;ratioP1;P2;durP2;ratioP2
22786;SDS011;63134;52.020;4.714;2022-09-14T00:01:32;7.50;;;1.67;;
22786;SDS011;63134;52.020;4.714;2022-09-14T00:04:20;5.82;;;1.85;;
22786;SDS011;63134;52.020;4.714;2022-09-14T00:07:06;10.48;;;1.73;;
22786;SDS011;63134;52.020;4.714;2022-09-14T00:09:52;8.02;;;1.50;;
22786;SDS011;63134;52.020;4.714;2022-09-14T00:12:37;11.27;;;2.08;;
22786;SDS011;63134;52.020;4.714;2022-09-14T00:15:26;7.22;;;1.63;;
22786;SDS011;63134;52.020;4.714;2022-09-14T00:18:11;14.35;;;2.05;;
22786;SDS011;63134;52.020;4.714;2022-09-14T00:21:04;12.25;;;1.90;;
22786;SDS011;63134;52.020;4.714;2022-09-14T00:23:52;5.15;;;1.60;;
22786;SDS011;63134;52.020;4.714;2022-09-14T00:26:37;7.85;;;2.25;;
22786;SDS011;63134;52.020;4.714;2022-09-14T00:29:28;14.27;;;1.85;;
22786;SDS011;63134;52.020;4.714;2022-09-14T00:32:15;6.28;;;2.40;;
22786;SDS011;63134;52.020;4.714;2022-09-14T00:35:00;10.63;;;1.83;;
22786;SDS011;63134;52.020;4.714;2022-09-14T00:37:47;7.60;;;1.80;;
22786;SDS011;63134;52.020;4.714;2022-09-14T00:40:35;7.60;;;2.03;;
22786;SDS011;63134;52.020;4.714;2022-09-14T00:43:20;8.55;;;1.65;;
22786;SDS011;63134;52.020;4.714;2022-09-14T00:46:10;12.80;;;2.13;;
22786;SDS011;63134;52.020;4.714;2022-09-14T00:48:57;12.32;;;1.90;;
22786;SDS011;63134;52.020;4.714;2022-09-14T00:51:45;7.43;;;1.60;;
22786;SDS011;63134;52.020;4.714;2022-09-14T00:54:43;8.10;;;1.98;;
22786;SDS011;63134;52.020;4.714;2022-09-14T00:57:43;7.05;;;1.80;;
22786;SDS011;63134;52.020;4.714;2022-09-14T01:00:30;9.23;;;1.90;;
22786;SDS011;63134;52.020;4.714;2022-09-14T01:03:16;6.90;;;1.48;;
22786;SDS011;63134;52.020;4.714;2022-09-14T01:15:44;9.35;;;1.60;;
22786;SDS011;63134;52.020;4.714;2022-09-14T01:18:41;13.02;;;2.63;;
22786;SDS011;63134;52.020;4.714;2022-09-14T01:21:31;11.07;;;2.00;;
22786;SDS011;63134;52.020;4.714;2022-09-14T01:24:23;9.93;;;2.08;;
22786;SDS011;63134;52.020;4.714;2022-09-14T01:27:24;8.15;;;1.85;;
22786;SDS011;63134;52.020;4.714;2022-09-14T01:30:18;7.70;;;1.70;;
22786;SDS011;63134;52.020;4.714;2022-09-14T01:33:17;10.05;;;1.70;;
22786;SDS011;63134;52.020;4.714;2022-09-14T01:36:06;12.68;;;2.17;;
22786;SDS011;63134;52.020;4.714;2022-09-14T01:38:53;6.68;;;1.75;;
22786;SDS011;63134;52.020;4.714;2022-09-14T01:41:52;8.07;;;2.15;;
22786;SDS011;63134;52.020;4.714;2022-09-14T01:44:40;8.50;;;2.20;;
22786;SDS011;63134;52.020;4.714;2022-09-14T01:47:36;11.05;;;2.03;;
22786;SDS011;63134;52.020;4.714;2022-09-14T01:50:48;8.43;;;1.90;;
22786;SDS011;63134;52.020;4.714;2022-09-14T01:53:35;6.30;;;1.70;;
22786;SDS011;63134;52.020;4.714;2022-09-14T01:56:39;8.23;;;2.08;;
22786;SDS011;63134;52.020;4.714;2022-09-14T01:59:37;5.63;;;1.85;;
22786;SDS011;63134;52.020;4.714;2022-09-14T02:02:28;8.70;;;2.00;;
22786;SDS011;63134;52.020;4.714;2022-09-14T02:08:18;8.13;;;1.92;;
22786;SDS011;63134;52.020;4.714;2022-09-14T02:11:04;10.27;;;2.17;;
22786;SDS011;63134;52.020;4.714;2022-09-14T02:13:50;16.88;;;2.33;;
22786;SDS011;63134;52.020;4.714;2022-09-14T02:16:35;8.32;;;2.03;;
22786;SDS011;63134;52.020;4.714;2022-09-14T02:19:21;8.13;;;2.03;;
22786;SDS011;63134;52.020;4.714;2022-09-14T02:22:09;6.93;;;1.98;;
22786;SDS011;63134;52.020;4.714;2022-09-14T02:24:54;13.23;;;2.35;;
22786;SDS011;63134;52.020;4.714;2022-09-14T02:27:40;9.07;;;1.80;;
22786;SDS011;63134;52.020;4.714;2022-09-14T02:30:31;10.82;;;2.55;;
22786;SDS011;63134;52.020;4.714;2022-09-14T02:33:41;6.47;;;2.13;;
22786;SDS011;63134;52.020;4.714;2022-09-14T02:39:26;11.07;;;2.73;;
22786;SDS011;63134;52.020;4.714;2022-09-14T02:42:28;11.80;;;2.00;;
22786;SDS011;63134;52.020;4.714;2022-09-14T02:45:25;8.80;;;1.83;;
22786;SDS011;63134;52.020;4.714;2022-09-14T02:54:27;7.43;;;1.90;;
22786;SDS011;63134;52.020;4.714;2022-09-14T03:00:08;11.90;;;2.13;;
22786;SDS011;63134;52.020;4.714;2022-09-14T03:02:54;12.50;;;2.08;;
22786;SDS011;63134;52.020;4.714;2022-09-14T03:05:39;8.00;;;1.80;;
22786;SDS011;63134;52.020;4.714;2022-09-14T03:08:25;6.70;;;1.90;;
22786;SDS011;63134;52.020;4.714;2022-09-14T03:11:12;8.63;;;1.83;;
22786;SDS011;63134;52.020;4.714;2022-09-14T03:13:57;6.88;;;2.05;;
22786;SDS011;63134;52.020;4.714;2022-09-14T03:16:43;8.82;;;2.00;;
22786;SDS011;63134;52.020;4.714;2022-09-14T03:19:28;7.15;;;1.95;;
22786;SDS011;63134;52.020;4.714;2022-09-14T03:22:14;10.25;;;1.80;;
22786;SDS011;63134;52.020;4.714;2022-09-14T03:24:59;11.15;;;2.25;;
22786;SDS011;63134;52.020;4.714;2022-09-14T03:27:48;3.70;;;1.50;;
22786;SDS011;63134;52.020;4.714;2022-09-14T03:30:35;8.40;;;2.47;;
22786;SDS011;63134;52.020;4.714;2022-09-14T03:33:20;14.18;;;2.13;;
22786;SDS011;63134;52.020;4.714;2022-09-14T03:38:57;11.52;;;1.92;;
22786;SDS011;63134;52.020;4.714;2022-09-14T03:41:43;11.90;;;2.05;;
22786;SDS011;63134;52.020;4.714;2022-09-14T03:44:28;7.93;;;1.90;;
22786;SDS011;63134;52.020;4.714;2022-09-14T03:47:14;4.68;;;1.80;;
22786;SDS011;63134;52.020;4.714;2022-09-14T03:50:00;6.15;;;2.10;;
22786;SDS011;63134;52.020;4.714;2022-09-14T03:52:45;7.35;;;1.75;;
22786;SDS011;63134;52.020;4.714;2022-09-14T03:55:31;15.30;;;2.08;;
22786;SDS011;63134;52.020;4.714;2022-09-14T03:58:16;12.52;;;2.13;;
22786;SDS011;63134;52.020;4.714;2022-09-14T04:01:02;7.93;;;1.88;;
22786;SDS011;63134;52.020;4.714;2022-09-14T04:03:49;10.38;;;1.85;;
22786;SDS011;63134;52.020;4.714;2022-09-14T04:06:35;13.70;;;2.47;;
22786;SDS011;63134;52.020;4.714;2022-09-14T04:09:20;13.48;;;2.20;;
22786;SDS011;63134;52.020;4.714;2022-09-14T04:12:06;10.30;;;2.25;;
22786;SDS011;63134;52.020;4.714;2022-09-14T04:14:52;7.10;;;2.10;;
22786;SDS011;63134;52.020;4.714;2022-09-14T04:17:38;9.05;;;2.03;;
22786;SDS011;63134;52.020;4.714;2022-09-14T04:20:24;9.15;;;2.17;;
22786;SDS011;63134;52.020;4.714;2022-09-14T04:23:09;7.35;;;2.55;;
22786;SDS011;63134;52.020;4.714;2022-09-14T04:25:56;6.55;;;2.30;;
22786;SDS011;63134;52.020;4.714;2022-09-14T04:28:41;11.20;;;2.22;;
22786;SDS011;63134;52.020;4.714;2022-09-14T04:31:27;9.30;;;2.25;;
22786;SDS011;63134;52.020;4.714;2022-09-14T04:34:12;11.98;;;2.47;;
22786;SDS011;63134;52.020;4.714;2022-09-14T04:36:58;8.55;;;2.22;;
22786;SDS011;63134;52.020;4.714;2022-09-14T04:39:45;5.30;;;1.90;;
22786;SDS011;63134;52.020;4.714;2022-09-14T04:42:31;10.55;;;1.90;;
22786;SDS011;63134;52.020;4.714;2022-09-14T04:45:17;6.82;;;2.10;;
22786;SDS011;63134;52.020;4.714;2022-09-14T04:48:02;8.57;;;1.90;;
22786;SDS011;63134;52.020;4.714;2022-09-14T04:50:48;9.57;;;2.00;;
22786;SDS011;63134;52.020;4.714;2022-09-14T04:53:34;6.05;;;1.90;;
22786;SDS011;63134;52.020;4.714;2022-09-14T04:56:21;14.07;;;2.20;;
22786;SDS011;63134;52.020;4.714;2022-09-14T04:59:08;5.45;;;1.60;;
22786;SDS011;63134;52.020;4.714;2022-09-14T05:01:55;7.90;;;2.08;;
22786;SDS011;63134;52.020;4.714;2022-09-14T05:04:41;9.23;;;2.00;;
22786;SDS011;63134;52.020;4.714;2022-09-14T05:07:27;7.57;;;1.73;;
22786;SDS011;63134;52.020;4.714;2022-09-14T05:10:12;8.55;;;1.73;;
22786;SDS011;63134;52.020;4.714;2022-09-14T05:12:58;6.88;;;1.70;;
22786;SDS011;63134;52.020;4.714;2022-09-14T05:15:43;8.23;;;2.15;;
22786;SDS011;63134;52.020;4.714;2022-09-14T05:18:28;7.03;;;2.25;;
22786;SDS011;63134;52.020;4.714;2022-09-14T05:21:16;7.43;;;1.95;;
22786;SDS011;63134;52.020;4.714;2022-09-14T05:24:13;9.07;;;2.67;;
22786;SDS011;63134;52.020;4.714;2022-09-14T05:27:00;8.52;;;2.30;;
22786;SDS011;63134;52.020;4.714;2022-09-14T05:29:45;14.15;;;2.40;;
22786;SDS011;63134;52.020;4.714;2022-09-14T05:32:31;9.40;;;3.10;;
22786;SDS011;63134;52.020;4.714;2022-09-14T05:35:16;9.40;;;2.78;;
22786;SDS011;63134;52.020;4.714;2022-09-14T05:38:02;19.65;;;3.08;;
22786;SDS011;63134;52.020;4.714;2022-09-14T05:40:47;12.55;;;3.20;;
22786;SDS011;63134;52.020;4.714;2022-09-14T05:43:37;11.60;;;3.25;;
22786;SDS011;63134;52.020;4.714;2022-09-14T05:46:22;9.77;;;3.75;;
22786;SDS011;63134;52.020;4.714;2022-09-14T05:49:08;11.95;;;3.83;;
22786;SDS011;63134;52.020;4.714;2022-09-14T05:51:53;11.02;;;3.75;;
22786;SDS011;63134;52.020;4.714;2022-09-14T05:54:44;10.35;;;3.92;;
22786;SDS011;63134;52.020;4.714;2022-09-14T05:57:30;14.07;;;2.90;;
22786;SDS011;63134;52.020;4.714;2022-09-14T06:00:16;5.72;;;2.38;;
22786;SDS011;63134;52.020;4.714;2022-09-14T06:03:02;13.07;;;2.72;;
22786;SDS011;63134;52.020;4.714;2022-09-14T06:05:48;14.93;;;2.63;;
22786;SDS011;63134;52.020;4.714;2022-09-14T06:08:34;7.65;;;2.60;;
22786;SDS011;63134;52.020;4.714;2022-09-14T06:11:21;9.30;;;2.70;;
22786;SDS011;63134;52.020;4.714;2022-09-14T06:14:08;6.43;;;2.40;;
22786;SDS011;63134;52.020;4.714;2022-09-14T06:16:53;9.45;;;2.55;;
22786;SDS011;63134;52.020;4.714;2022-09-14T06:19:39;8.18;;;2.50;;
22786;SDS011;63134;52.020;4.714;2022-09-14T06:22:24;10.52;;;2.90;;
22786;SDS011;63134;52.020;4.714;2022-09-14T06:25:10;11.30;;;2.75;;
22786;SDS011;63134;52.020;4.714;2022-09-14T06:27:55;12.65;;;3.83;;
22786;SDS011;63134;52.020;4.714;2022-09-14T06:30:42;12.50;;;2.90;;
22786;SDS011;63134;52.020;4.714;2022-09-14T06:33:37;10.02;;;2.60;;
22786;SDS011;63134;52.020;4.714;2022-09-14T06:36:26;14.50;;;2.70;;
22786;SDS011;63134;52.020;4.714;2022-09-14T06:39:12;10.35;;;2.53;;
22786;SDS011;63134;52.020;4.714;2022-09-14T06:41:58;11.63;;;2.75;;
22786;SDS011;63134;52.020;4.714;2022-09-14T06:44:46;9.50;;;2.47;;
22786;SDS011;63134;52.020;4.714;2022-09-14T06:47:32;10.55;;;2.60;;
22786;SDS011;63134;52.020;4.714;2022-09-14T06:50:18;10.32;;;2.72;;
22786;SDS011;63134;52.020;4.714;2022-09-14T06:53:03;15.10;;;2.60;;
22786;SDS011;63134;52.020;4.714;2022-09-14T06:55:49;13.00;;;2.85;;
22786;SDS011;63134;52.020;4.714;2022-09-14T06:58:35;11.40;;;3.28;;
22786;SDS011;63134;52.020;4.714;2022-09-14T07:01:21;13.13;;;2.78;;
22786;SDS011;63134;52.020;4.714;2022-09-14T07:04:07;7.57;;;3.25;;
22786;SDS011;63134;52.020;4.714;2022-09-14T07:06:52;14.07;;;3.45;;
22786;SDS011;63134;52.020;4.714;2022-09-14T07:09:44;10.73;;;2.63;;
22786;SDS011;63134;52.020;4.714;2022-09-14T07:12:30;8.48;;;2.22;;
22786;SDS011;63134;52.020;4.714;2022-09-14T07:15:15;11.05;;;2.53;;
22786;SDS011;63134;52.020;4.714;2022-09-14T07:18:01;16.75;;;4.07;;
22786;SDS011;63134;52.020;4.714;2022-09-14T07:20:47;10.60;;;2.63;;
22786;SDS011;63134;52.020;4.714;2022-09-14T07:23:34;11.88;;;3.05;;
22786;SDS011;63134;52.020;4.714;2022-09-14T07:26:23;11.85;;;2.53;;
22786;SDS011;63134;52.020;4.714;2022-09-14T07:29:15;9.20;;;2.35;;
22786;SDS011;63134;52.020;4.714;2022-09-14T07:32:02;9.45;;;2.25;;
22786;SDS011;63134;52.020;4.714;2022-09-14T07:34:48;10.98;;;2.22;;
22786;SDS011;63134;52.020;4.714;2022-09-14T07:37:33;12.80;;;2.55;;
22786;SDS011;63134;52.020;4.714;2022-09-14T07:40:19;7.82;;;2.28;;
22786;SDS011;63134;52.020;4.714;2022-09-14T07:43:07;7.57;;;2.13;;
22786;SDS011;63134;52.020;4.714;2022-09-14T07:45:52;7.65;;;2.10;;
22786;SDS011;63134;52.020;4.714;2022-09-14T07:48:37;8.20;;;1.98;;
22786;SDS011;63134;52.020;4.714;2022-09-14T07:51:23;8.75;;;2.38;;
22786;SDS011;63134;52.020;4.714;2022-09-14T07:54:10;10.10;;;2.30;;
22786;SDS011;63134;52.020;4.714;2022-09-14T07:56:57;6.20;;;2.17;;
22786;SDS011;63134;52.020;4.714;2022-09-14T07:59:42;18.27;;;2.67;;
22786;SDS011;63134;52.020;4.714;2022-09-14T08:02:27;9.43;;;2.38;;
22786;SDS011;63134;52.020;4.714;2022-09-14T08:05:14;11.57;;;2.10;;
22786;SDS011;63134;52.020;4.714;2022-09-14T08:08:02;8.55;;;2.28;;
22786;SDS011;63134;52.020;4.714;2022-09-14T08:10:48;12.25;;;2.38;;
22786;SDS011;63134;52.020;4.714;2022-09-14T08:13:35;11.05;;;2.17;;
22786;SDS011;63134;52.020;4.714;2022-09-14T08:16:22;9.25;;;2.25;;
22786;SDS011;63134;52.020;4.714;2022-09-14T08:19:12;18.13;;;2.92;;
22786;SDS011;63134;52.020;4.714;2022-09-14T08:22:00;12.55;;;2.78;;
22786;SDS011;63134;52.020;4.714;2022-09-14T08:24:45;8.75;;;2.78;;
22786;SDS011;63134;52.020;4.714;2022-09-14T08:27:31;9.93;;;2.70;;
22786;SDS011;63134;52.020;4.714;2022-09-14T08:30:16;7.93;;;2.17;;
22786;SDS011;63134;52.020;4.714;2022-09-14T08:33:02;9.27;;;2.67;;
22786;SDS011;63134;52.020;4.714;2022-09-14T08:35:47;8.48;;;2.35;;
22786;SDS011;63134;52.020;4.714;2022-09-14T08:38:48;12.50;;;2.00;;
22786;SDS011;63134;52.020;4.714;2022-09-14T08:41:37;14.25;;;2.38;;
22786;SDS011;63134;52.020;4.714;2022-09-14T08:44:30;6.55;;;1.90;;
22786;SDS011;63134;52.020;4.714;2022-09-14T08:50:15;8.93;;;1.88;;
22786;SDS011;63134;52.020;4.714;2022-09-14T08:53:06;7.97;;;2.00;;
22786;SDS011;63134;52.020;4.714;2022-09-14T08:55:53;5.03;;;1.58;;
22786;SDS011;63134;52.020;4.714;2022-09-14T08:58:50;9.45;;;2.08;;
22786;SDS011;63134;52.020;4.714;2022-09-14T09:08:29;9.40;;;2.00;;
22786;SDS011;63134;52.020;4.714;2022-09-14T09:11:24;12.32;;;2.17;;
22786;SDS011;63134;52.020;4.714;2022-09-14T09:14:22;13.30;;;2.70;;
22786;SDS011;63134;52.020;4.714;2022-09-14T09:17:24;9.15;;;2.13;;
22786;SDS011;63134;52.020;4.714;2022-09-14T09:20:19;10.05;;;1.90;;
22786;SDS011;63134;52.020;4.714;2022-09-14T09:23:19;11.05;;;2.03;;
22786;SDS011;63134;52.020;4.714;2022-09-14T09:26:10;11.48;;;2.05;;
22786;SDS011;63134;52.020;4.714;2022-09-14T09:29:15;16.27;;;2.47;;
22786;SDS011;63134;52.020;4.714;2022-09-14T09:32:21;12.38;;;2.10;;
22786;SDS011;63134;52.020;4.714;2022-09-14T09:35:37;11.23;;;1.90;;
22786;SDS011;63134;52.020;4.714;2022-09-14T09:38:33;5.68;;;1.50;;
22786;SDS011;63134;52.020;4.714;2022-09-14T09:41:19;9.85;;;1.80;;
22786;SDS011;63134;52.020;4.714;2022-09-14T09:44:09;10.95;;;2.08;;
22786;SDS011;63134;52.020;4.714;2022-09-14T09:46:58;11.73;;;1.40;;
22786;SDS011;63134;52.020;4.714;2022-09-14T09:49:45;10.10;;;1.80;;
22786;SDS011;63134;52.020;4.714;2022-09-14T09:52:49;11.50;;;2.53;;
22786;SDS011;63134;52.020;4.714;2022-09-14T09:55:39;8.80;;;2.20;;
22786;SDS011;63134;52.020;4.714;2022-09-14T10:01:34;10.73;;;1.70;;
22786;SDS011;63134;52.020;4.714;2022-09-14T10:04:21;10.00;;;1.75;;
22786;SDS011;63134;52.020;4.714;2022-09-14T10:07:18;5.63;;;1.90;;
22786;SDS011;63134;52.020;4.714;2022-09-14T10:10:07;5.45;;;2.10;;
22786;SDS011;63134;52.020;4.714;2022-09-14T10:12:55;10.18;;;2.30;;
22786;SDS011;63134;52.020;4.714;2022-09-14T10:15:41;17.50;;;2.70;;
22786;SDS011;63134;52.020;4.714;2022-09-14T10:18:27;7.63;;;1.73;;
22786;SDS011;63134;52.020;4.714;2022-09-14T10:21:15;7.25;;;2.40;;
22786;SDS011;63134;52.020;4.714;2022-09-14T10:26:59;8.83;;;2.30;;
22786;SDS011;63134;52.020;4.714;2022-09-14T10:29:44;17.05;;;2.10;;
22786;SDS011;63134;52.020;4.714;2022-09-14T10:32:32;9.32;;;2.17;;
22786;SDS011;63134;52.020;4.714;2022-09-14T10:35:19;9.63;;;1.88;;
22786;SDS011;63134;52.020;4.714;2022-09-14T10:38:27;8.63;;;2.13;;
22786;SDS011;63134;52.020;4.714;2022-09-14T10:41:54;9.63;;;2.03;;
22786;SDS011;63134;52.020;4.714;2022-09-14T10:57:30;7.43;;;2.15;;
22786;SDS011;63134;52.020;4.714;2022-09-14T11:00:49;13.50;;;2.10;;
22786;SDS011;63134;52.020;4.714;2022-09-14T11:06:57;9.13;;;1.95;;
22786;SDS011;63134;52.020;4.714;2022-09-14T11:28:41;8.23;;;2.30;;
22786;SDS011;63134;52.020;4.714;2022-09-14T11:31:31;9.07;;;2.13;;
22786;SDS011;63134;52.020;4.714;2022-09-14T11:38:16;9.60;;;2.13;;
22786;SDS011;63134;52.020;4.714;2022-09-14T11:44:39;11.07;;;2.00;;
22786;SDS011;63134;52.020;4.714;2022-09-14T11:47:31;7.05;;;1.80;;
22786;SDS011;63134;52.020;4.714;2022-09-14T11:50:23;10.30;;;1.90;;
22786;SDS011;63134;52.020;4.714;2022-09-14T11:53:12;9.32;;;2.08;;
22786;SDS011;63134;52.020;4.714;2022-09-14T11:55:59;5.25;;;1.65;;
22786;SDS011;63134;52.020;4.714;2022-09-14T11:58:45;9.32;;;1.83;;
22786;SDS011;63134;52.020;4.714;2022-09-14T12:04:25;6.32;;;1.42;;
22786;SDS011;63134;52.020;4.714;2022-09-14T12:07:10;4.55;;;1.40;;
22786;SDS011;63134;52.020;4.714;2022-09-14T12:10:03;7.95;;;1.45;;
22786;SDS011;63134;52.020;4.714;2022-09-14T12:16:01;5.88;;;1.40;;
22786;SDS011;63134;52.020;4.714;2022-09-14T12:18:53;6.72;;;1.55;;
22786;SDS011;63134;52.020;4.714;2022-09-14T12:21:40;4.43;;;1.70;;
22786;SDS011;63134;52.020;4.714;2022-09-14T12:24:25;7.57;;;1.38;;
22786;SDS011;63134;52.020;4.714;2022-09-14T12:27:17;6.88;;;1.60;;
22786;SDS011;63134;52.020;4.714;2022-09-14T12:39:08;6.82;;;1.50;;
22786;SDS011;63134;52.020;4.714;2022-09-14T12:48:52;7.00;;;1.38;;
22786;SDS011;63134;52.020;4.714;2022-09-14T12:51:48;7.45;;;1.80;;
22786;SDS011;63134;52.020;4.714;2022-09-14T12:54:41;7.80;;;1.40;;
22786;SDS011;63134;52.020;4.714;2022-09-14T12:57:38;11.30;;;1.70;;
22786;SDS011;63134;52.020;4.714;2022-09-14T13:00:44;4.80;;;1.48;;
22786;SDS011;63134;52.020;4.714;2022-09-14T13:06:40;6.03;;;1.88;;
22786;SDS011;63134;52.020;4.714;2022-09-14T13:09:28;7.82;;;2.10;;
22786;SDS011;63134;52.020;4.714;2022-09-14T13:12:29;9.27;;;1.80;;
22786;SDS011;63134;52.020;4.714;2022-09-14T13:15:31;6.05;;;1.98;;
22786;SDS011;63134;52.020;4.714;2022-09-14T13:21:19;9.13;;;1.63;;
22786;SDS011;63134;52.020;4.714;2022-09-14T13:27:29;6.60;;;1.65;;
22786;SDS011;63134;52.020;4.714;2022-09-14T13:30:21;9.93;;;2.22;;
22786;SDS011;63134;52.020;4.714;2022-09-14T13:33:14;6.88;;;1.75;;
22786;SDS011;63134;52.020;4.714;2022-09-14T13:36:02;5.72;;;1.65;;
22786;SDS011;63134;52.020;4.714;2022-09-14T13:38:49;5.05;;;1.50;;
22786;SDS011;63134;52.020;4.714;2022-09-14T13:41:35;11.07;;;1.92;;
22786;SDS011;63134;52.020;4.714;2022-09-14T13:44:32;5.78;;;1.70;;
22786;SDS011;63134;52.020;4.714;2022-09-14T13:47:23;7.30;;;1.90;;
22786;SDS011;63134;52.020;4.714;2022-09-14T13:50:11;5.80;;;1.83;;
22786;SDS011;63134;52.020;4.714;2022-09-14T13:52:57;7.13;;;1.80;;
22786;SDS011;63134;52.020;4.714;2022-09-14T13:55:48;5.78;;;1.63;;
22786;SDS011;63134;52.020;4.714;2022-09-14T13:58:33;5.65;;;1.73;;
22786;SDS011;63134;52.020;4.714;2022-09-14T14:01:26;5.30;;;1.58;;
22786;SDS011;63134;52.020;4.714;2022-09-14T14:07:24;3.67;;;1.48;;
22786;SDS011;63134;52.020;4.714;2022-09-14T14:10:21;10.88;;;2.47;;
22786;SDS011;63134;52.020;4.714;2022-09-14T14:13:10;6.47;;;2.45;;
22786;SDS011;63134;52.020;4.714;2022-09-14T14:19:29;9.07;;;1.92;;
22786;SDS011;63134;52.020;4.714;2022-09-14T14:22:20;13.38;;;2.30;;
22786;SDS011;63134;52.020;4.714;2022-09-14T14:25:17;8.13;;;1.85;;
22786;SDS011;63134;52.020;4.714;2022-09-14T14:28:05;9.63;;;1.98;;
22786;SDS011;63134;52.020;4.714;2022-09-14T14:30:59;4.57;;;1.50;;
22786;SDS011;63134;52.020;4.714;2022-09-14T14:33:52;8.35;;;1.40;;
22786;SDS011;63134;52.020;4.714;2022-09-14T14:36:39;4.18;;;1.55;;
22786;SDS011;63134;52.020;4.714;2022-09-14T14:39:24;4.45;;;1.48;;
22786;SDS011;63134;52.020;4.714;2022-09-14T14:42:10;7.60;;;1.80;;
22786;SDS011;63134;52.020;4.714;2022-09-14T14:44:56;6.65;;;1.80;;
22786;SDS011;63134;52.020;4.714;2022-09-14T14:47:41;8.30;;;1.63;;
22786;SDS011;63134;52.020;4.714;2022-09-14T14:50:33;5.35;;;1.60;;
22786;SDS011;63134;52.020;4.714;2022-09-14T14:53:23;5.75;;;1.35;;
22786;SDS011;63134;52.020;4.714;2022-09-14T14:56:10;6.65;;;1.67;;
22786;SDS011;63134;52.020;4.714;2022-09-14T14:58:56;6.07;;;1.67;;
22786;SDS011;63134;52.020;4.714;2022-09-14T15:01:47;6.03;;;1.38;;
22786;SDS011;63134;52.020;4.714;2022-09-14T15:04:33;7.28;;;1.65;;
22786;SDS011;63134;52.020;4.714;2022-09-14T15:07:19;7.55;;;1.95;;
22786;SDS011;63134;52.020;4.714;2022-09-14T15:10:05;8.82;;;1.55;;
22786;SDS011;63134;52.020;4.714;2022-09-14T15:12:51;10.30;;;1.80;;
22786;SDS011;63134;52.020;4.714;2022-09-14T15:15:37;8.52;;;2.05;;
22786;SDS011;63134;52.020;4.714;2022-09-14T15:18:25;4.45;;;1.52;;
22786;SDS011;63134;52.020;4.714;2022-09-14T15:21:10;6.82;;;1.83;;
22786;SDS011;63134;52.020;4.714;2022-09-14T15:23:56;6.57;;;1.45;;
22786;SDS011;63134;52.020;4.714;2022-09-14T15:26:42;5.55;;;2.00;;
22786;SDS011;63134;52.020;4.714;2022-09-14T15:29:31;11.27;;;2.05;;
22786;SDS011;63134;52.020;4.714;2022-09-14T15:32:16;5.50;;;1.67;;
22786;SDS011;63134;52.020;4.714;2022-09-14T15:35:03;7.55;;;1.73;;
22786;SDS011;63134;52.020;4.714;2022-09-14T15:37:50;6.93;;;2.03;;
22786;SDS011;63134;52.020;4.714;2022-09-14T15:40:35;7.10;;;1.80;;
22786;SDS011;63134;52.020;4.714;2022-09-14T15:43:21;7.45;;;1.60;;
22786;SDS011;63134;52.020;4.714;2022-09-14T15:46:07;9.15;;;1.90;;
22786;SDS011;63134;52.020;4.714;2022-09-14T15:48:52;7.68;;;1.60;;
22786;SDS011;63134;52.020;4.714;2022-09-14T15:51:38;6.82;;;1.88;;
22786;SDS011;63134;52.020;4.714;2022-09-14T15:54:29;6.10;;;1.58;;
22786;SDS011;63134;52.020;4.714;2022-09-14T15:57:16;14.52;;;1.77;;
22786;SDS011;63134;52.020;4.714;2022-09-14T16:00:03;5.97;;;1.63;;
22786;SDS011;63134;52.020;4.714;2022-09-14T16:02:56;9.15;;;1.95;;
22786;SDS011;63134;52.020;4.714;2022-09-14T16:05:42;6.72;;;2.00;;
22786;SDS011;63134;52.020;4.714;2022-09-14T16:08:27;8.43;;;1.50;;
22786;SDS011;63134;52.020;4.714;2022-09-14T16:11:14;10.05;;;2.13;;
22786;SDS011;63134;52.020;4.714;2022-09-14T16:13:59;11.32;;;2.05;;
22786;SDS011;63134;52.020;4.714;2022-09-14T16:16:45;7.38;;;1.90;;
22786;SDS011;63134;52.020;4.714;2022-09-14T16:19:30;6.72;;;1.50;;
22786;SDS011;63134;52.020;4.714;2022-09-14T16:22:16;7.53;;;2.28;;
22786;SDS011;63134;52.020;4.714;2022-09-14T16:25:01;8.10;;;2.05;;
22786;SDS011;63134;52.020;4.714;2022-09-14T16:27:47;10.63;;;1.80;;
22786;SDS011;63134;52.020;4.714;2022-09-14T16:30:32;9.77;;;1.90;;
22786;SDS011;63134;52.020;4.714;2022-09-14T16:33:21;14.90;;;2.42;;
22786;SDS011;63134;52.020;4.714;2022-09-14T16:36:07;11.35;;;2.10;;
22786;SDS011;63134;52.020;4.714;2022-09-14T16:38:55;9.82;;;2.28;;
22786;SDS011;63134;52.020;4.714;2022-09-14T16:41:42;8.40;;;2.03;;
22786;SDS011;63134;52.020;4.714;2022-09-14T16:44:29;9.45;;;1.85;;
22786;SDS011;63134;52.020;4.714;2022-09-14T16:47:14;11.68;;;2.10;;
22786;SDS011;63134;52.020;4.714;2022-09-14T16:50:00;10.55;;;1.63;;
22786;SDS011;63134;52.020;4.714;2022-09-14T16:52:45;12.45;;;1.90;;
22786;SDS011;63134;52.020;4.714;2022-09-14T16:55:30;8.32;;;2.13;;
22786;SDS011;63134;52.020;4.714;2022-09-14T16:58:20;5.68;;;1.40;;
22786;SDS011;63134;52.020;4.714;2022-09-14T17:01:07;9.13;;;1.83;;
22786;SDS011;63134;52.020;4.714;2022-09-14T17:03:58;5.72;;;1.90;;
22786;SDS011;63134;52.020;4.714;2022-09-14T17:06:45;10.55;;;1.90;;
22786;SDS011;63134;52.020;4.714;2022-09-14T17:09:31;6.75;;;1.80;;
22786;SDS011;63134;52.020;4.714;2022-09-14T17:12:19;7.53;;;1.60;;
22786;SDS011;63134;52.020;4.714;2022-09-14T17:15:13;12.60;;;2.25;;
22786;SDS011;63134;52.020;4.714;2022-09-14T17:17:58;7.25;;;1.67;;
22786;SDS011;63134;52.020;4.714;2022-09-14T17:20:54;8.50;;;1.85;;
22786;SDS011;63134;52.020;4.714;2022-09-14T17:23:41;7.20;;;1.80;;
22786;SDS011;63134;52.020;4.714;2022-09-14T17:26:29;6.20;;;1.77;;
22786;SDS011;63134;52.020;4.714;2022-09-14T17:29:16;5.53;;;1.90;;
22786;SDS011;63134;52.020;4.714;2022-09-14T17:32:01;6.05;;;1.52;;
22786;SDS011;63134;52.020;4.714;2022-09-14T17:34:47;12.35;;;1.73;;
22786;SDS011;63134;52.020;4.714;2022-09-14T17:37:32;8.05;;;1.52;;
22786;SDS011;63134;52.020;4.714;2022-09-14T17:40:18;8.93;;;1.85;;
22786;SDS011;63134;52.020;4.714;2022-09-14T17:43:03;10.65;;;1.88;;
22786;SDS011;63134;52.020;4.714;2022-09-14T17:45:50;6.47;;;1.55;;
22786;SDS011;63134;52.020;4.714;2022-09-14T17:48:40;9.48;;;1.75;;
22786;SDS011;63134;52.020;4.714;2022-09-14T17:51:27;7.22;;;1.67;;
22786;SDS011;63134;52.020;4.714;2022-09-14T17:54:13;10.80;;;2.20;;
22786;SDS011;63134;52.020;4.714;2022-09-14T17:56:59;13.82;;;2.00;;
22786;SDS011;63134;52.020;4.714;2022-09-14T17:59:44;7.38;;;1.90;;
22786;SDS011;63134;52.020;4.714;2022-09-14T18:02:30;9.63;;;1.67;;
22786;SDS011;63134;52.020;4.714;2022-09-14T18:05:16;10.02;;;1.67;;
22786;SDS011;63134;52.020;4.714;2022-09-14T18:08:02;7.95;;;1.92;;
22786;SDS011;63134;52.020;4.714;2022-09-14T18:10:47;10.48;;;1.92;;
22786;SDS011;63134;52.020;4.714;2022-09-14T18:13:33;7.35;;;1.60;;
22786;SDS011;63134;52.020;4.714;2022-09-14T18:16:19;6.80;;;1.60;;
22786;SDS011;63134;52.020;4.714;2022-09-14T18:19:05;7.20;;;1.60;;
22786;SDS011;63134;52.020;4.714;2022-09-14T18:21:51;11.45;;;1.92;;
22786;SDS011;63134;52.020;4.714;2022-09-14T18:24:36;9.10;;;1.80;;
22786;SDS011;63134;52.020;4.714;2022-09-14T18:27:22;11.35;;;2.22;;
22786;SDS011;63134;52.020;4.714;2022-09-14T18:30:08;8.40;;;1.88;;
22786;SDS011;63134;52.020;4.714;2022-09-14T18:32:53;9.27;;;2.03;;
22786;SDS011;63134;52.020;4.714;2022-09-14T18:35:39;9.52;;;1.80;;
22786;SDS011;63134;52.020;4.714;2022-09-14T18:38:25;7.40;;;1.55;;
22786;SDS011;63134;52.020;4.714;2022-09-14T18:41:11;7.57;;;1.60;;
22786;SDS011;63134;52.020;4.714;2022-09-14T18:43:57;8.05;;;1.55;;
22786;SDS011;63134;52.020;4.714;2022-09-14T18:46:43;8.00;;;2.03;;
22786;SDS011;63134;52.020;4.714;2022-09-14T18:49:30;5.35;;;1.67;;
22786;SDS011;63134;52.020;4.714;2022-09-14T18:52:16;7.75;;;2.28;;
22786;SDS011;63134;52.020;4.714;2022-09-14T18:55:02;7.80;;;1.52;;